Time;durP1;ratioP1;P1;durP2;ratioP2;P2;SDS_P1;SDS_P2;PMS_P1;PMS_P2;Temp;Humidity;BMP_temperature;BMP_pressure;BME280_temperature;BME280_humidity;BME280_pressure;Samples;Min_cycle;Max_cycle;Signal;HPM_P1;HPM_P2
2021/12/10 00:01:51;;;;;;;6.15;2.47;;;;;;;4.52;94.60;98814.75;4978572;28;20030;-63
2021/12/10 00:04:20;;;;;;;6.18;2.97;;;;;;;4.51;94.56;98802.50;4971553;28;20085;-63
2021/12/10 00:06:53;;;;;;;6.38;2.78;;;;;;;4.45;94.54;98800.91;4973907;28;20113;-63
2021/12/10 00:09:24;;;;;;;8.07;2.65;;;;;;;4.56;93.98;98801.47;4985600;28;20441;-63
2021/12/10 00:11:55;;;;;;;3.67;2.00;;;;;;;4.58;93.14;98794.38;4990482;28;20066;-63
2021/12/10 00:14:29;;;;;;;9.27;2.33;;;;;;;4.59;93.12;98785.59;4980702;28;20410;-63
2021/12/10 00:16:55;;;;;;;8.43;2.60;;;;;;;4.64;92.91;98780.19;4990107;28;20397;-63
2021/12/10 00:19:30;;;;;;;8.45;2.80;;;;;;;4.63;92.95;98779.31;4983502;28;20026;-64
2021/12/10 00:22:00;;;;;;;9.13;2.45;;;;;;;4.73;92.69;98774.63;4990471;28;20030;-64
2021/12/10 00:24:29;;;;;;;7.05;2.80;;;;;;;4.75;92.49;98760.53;4991282;28;20035;-64
2021/12/10 00:27:14;;;;;;;10.15;2.97;;;;;;;4.74;92.59;98758.81;4979362;28;20114;-63
2021/12/10 00:29:48;;;;;;;9.52;3.25;;;;;;;4.67;92.64;98735.31;4988663;28;20498;-63
2021/12/10 00:32:23;;;;;;;4.20;2.63;;;;;;;4.72;92.43;98733.41;4984727;28;20425;-63
2021/12/10 00:34:51;;;;;;;3.40;2.00;;;;;;;4.75;91.52;98736.84;4989079;28;20023;-63
2021/12/10 00:37:20;;;;;;;3.30;2.13;;;;;;;4.69;91.33;98726.50;4990641;28;20022;-63
2021/12/10 00:39:56;;;;;;;5.10;2.55;;;;;;;4.65;90.83;98724.84;4992097;28;20026;-63
2021/12/10 00:42:26;;;;;;;5.13;2.00;;;;;;;4.63;90.58;98710.84;4990307;28;20014;-63
2021/12/10 00:44:53;;;;;;;6.18;2.47;;;;;;;4.59;90.04;98703.97;4985315;28;20033;-63
2021/12/10 00:47:18;;;;;;;15.52;2.75;;;;;;;4.57;90.48;98692.63;4983874;28;20033;-63
2021/12/10 00:49:44;;;;;;;5.53;2.22;;;;;;;4.59;90.13;98684.66;4973524;28;20671;-63
2021/12/10 00:52:12;;;;;;;13.93;2.92;;;;;;;4.55;89.55;98673.34;4988005;28;20030;-63
2021/12/10 00:54:38;;;;;;;6.65;2.78;;;;;;;4.56;89.41;98661.94;4982044;28;20026;-63
2021/12/10 00:57:05;;;;;;;4.45;2.53;;;;;;;4.43;89.77;98652.66;4996301;28;20026;-63
2021/12/10 00:59:31;;;;;;;7.32;2.92;;;;;;;4.36;90.32;98645.88;4995247;28;20037;-63
2021/12/10 01:01:57;;;;;;;5.13;1.92;;;;;;;4.32;90.97;98635.47;4985520;28;20039;-63
2021/12/10 01:04:28;;;;;;;6.68;2.72;;;;;;;4.25;90.96;98632.16;4996812;28;20374;-63
2021/12/10 01:06:57;;;;;;;4.45;2.13;;;;;;;4.21;91.65;98630.53;4983359;28;20205;-63
2021/12/10 01:09:27;;;;;;;8.88;3.00;;;;;;;4.19;92.07;98624.44;4984935;28;20371;-63
2021/12/10 01:11:58;;;;;;;4.10;2.40;;;;;;;4.15;92.15;98620.19;4993123;28;20026;-63
2021/12/10 01:25:34;;;;;;;3.88;2.33;;;;;;;3.87;93.66;98596.44;4974829;28;19989;-63
2021/12/10 01:28:01;;;;;;;4.18;2.28;;;;;;;3.90;94.09;98592.88;4976128;28;20026;-63
2021/12/10 01:30:32;;;;;;;3.47;2.10;;;;;;;3.88;94.01;98590.28;5004134;28;20087;-63
2021/12/10 01:33:05;;;;;;;5.60;2.80;;;;;;;3.82;93.89;98576.44;5013005;28;20100;-63
2021/12/10 01:35:38;;;;;;;5.50;2.20;;;;;;;3.75;94.48;98570.50;5014380;28;20104;-63
2021/12/10 01:38:06;;;;;;;5.53;3.40;;;;;;;3.72;95.25;98564.47;4989444;28;20035;-63
2021/12/10 01:40:35;;;;;;;5.03;2.20;;;;;;;3.71;94.62;98563.59;4996620;28;20097;-63
2021/12/10 01:43:07;;;;;;;2.10;1.60;;;;;;;3.87;94.32;98556.16;4993690;28;20052;-63
2021/12/10 01:45:46;;;;;;;5.93;1.67;;;;;;;3.84;93.80;98549.19;4991027;28;20037;-63
2021/12/10 01:48:18;;;;;;;3.88;2.08;;;;;;;3.72;93.91;98535.56;4979198;28;20368;-63
2021/12/10 01:50:44;;;;;;;3.17;1.92;;;;;;;3.74;94.68;98531.13;4973768;28;20026;-63
2021/12/10 01:53:14;;;;;;;3.42;2.10;;;;;;;3.70;94.91;98532.97;4977021;28;20030;-63
2021/12/10 01:55:43;;;;;;;4.90;2.47;;;;;;;3.59;95.05;98527.13;4990142;28;20050;-63
2021/12/10 01:58:12;;;;;;;2.05;1.70;;;;;;;3.54;95.04;98520.31;4993442;28;20113;-63
2021/12/10 02:00:41;;;;;;;5.78;2.28;;;;;;;3.47;94.76;98521.38;4994188;28;20037;-63
2021/12/10 02:03:08;;;;;;;5.43;2.47;;;;;;;3.35;95.60;98519.09;4982857;28;20109;-63
2021/12/10 02:05:34;;;;;;;3.13;2.03;;;;;;;3.26;95.59;98514.09;4993466;28;20041;-63
2021/12/10 02:08:00;;;;;;;3.30;2.10;;;;;;;3.14;96.18;98499.53;4993389;28;20034;-63
2021/12/10 02:10:28;;;;;;;4.55;3.17;;;;;;;3.06;96.94;98511.13;4993640;28;20038;-63
2021/12/10 02:12:54;;;;;;;2.88;2.22;;;;;;;2.97;96.76;98503.50;4995249;28;20061;-63
2021/12/10 02:15:22;;;;;;;3.67;2.05;;;;;;;2.91;97.01;98494.03;5012524;28;20069;-63
2021/12/10 02:17:50;;;;;;;4.38;2.45;;;;;;;2.89;97.61;98473.94;4988653;28;20038;-65
2021/12/10 02:20:21;;;;;;;4.90;2.03;;;;;;;2.84;97.60;98470.59;4992799;28;20085;-63
2021/12/10 02:22:49;;;;;;;7.28;2.22;;;;;;;2.75;97.75;98465.59;4990007;28;20073;-63
2021/12/10 02:25:17;;;;;;;4.35;2.00;;;;;;;2.72;97.67;98458.66;4992502;28;20463;-63
2021/12/10 02:27:43;;;;;;;6.20;2.28;;;;;;;2.61;97.54;98435.31;4988985;28;20026;-63
2021/12/10 02:30:11;;;;;;;10.45;2.70;;;;;;;2.64;97.75;98444.88;4978548;28;20027;-63
2021/12/10 02:32:36;;;;;;;4.80;1.92;;;;;;;2.57;98.24;98425.78;4985517;28;20026;-63
2021/12/10 02:35:04;;;;;;;6.25;2.20;;;;;;;2.56;99.29;98410.97;4981822;28;20081;-63
2021/12/10 02:37:30;;;;;;;6.45;1.80;;;;;;;2.57;99.43;98409.22;4979895;28;20496;-63
2021/12/10 02:39:55;;;;;;;3.95;2.03;;;;;;;2.55;99.54;98396.09;4992617;28;20026;-63
2021/12/10 02:42:21;;;;;;;3.72;2.03;;;;;;;2.64;100.00;98393.25;4987685;28;20045;-63
2021/12/10 02:44:46;;;;;;;3.30;1.95;;;;;;;2.63;100.00;98388.91;4983273;28;20060;-63
2021/12/10 02:47:12;;;;;;;6.00;2.05;;;;;;;2.57;100.00;98381.19;4993870;28;20045;-64
2021/12/10 02:49:37;;;;;;;9.38;2.10;;;;;;;2.56;100.00;98379.47;4990186;28;20030;-63
2021/12/10 02:52:05;;;;;;;2.47;1.70;;;;;;;2.60;100.00;98369.75;4992063;28;20022;-63
2021/12/10 02:54:35;;;;;;;3.95;1.92;;;;;;;2.58;100.00;98367.19;4987733;28;20113;-64
2021/12/10 02:57:09;;;;;;;2.35;1.70;;;;;;;2.52;100.00;98372.56;5010508;28;20057;-63
2021/12/10 02:59:36;;;;;;;3.80;2.08;;;;;;;2.48;100.00;98355.22;5000559;28;20097;-63
2021/12/10 03:02:04;;;;;;;2.67;1.80;;;;;;;2.46;100.00;98346.50;4993166;28;20084;-64
2021/12/10 03:04:31;;;;;;;4.43;2.17;;;;;;;2.45;100.00;98344.81;4982775;28;20026;-64
2021/12/10 03:06:59;;;;;;;3.95;1.88;;;;;;;2.43;100.00;98330.84;4992808;28;20113;-64
2021/12/10 03:09:27;;;;;;;3.70;1.85;;;;;;;2.44;100.00;98316.81;4988083;28;20018;-63
2021/12/10 03:11:56;;;;;;;4.05;2.83;;;;;;;2.34;100.00;98298.78;4992527;28;20030;-63
2021/12/10 03:14:25;;;;;;;3.83;1.65;;;;;;;2.41;100.00;98303.78;4992035;28;20069;-63
2021/12/10 03:16:53;;;;;;;4.57;2.17;;;;;;;2.40;100.00;98312.59;4988160;28;20050;-64
2021/12/10 03:19:20;;;;;;;7.20;2.00;;;;;;;2.34;100.00;98297.00;4987725;28;20041;-64
2021/12/10 03:21:45;;;;;;;5.22;3.40;;;;;;;2.37;100.00;98299.53;4989435;28;20034;-64
2021/12/10 03:24:17;;;;;;;2.70;1.77;;;;;;;2.37;100.00;98299.53;4984957;28;20019;-64
2021/12/10 03:26:43;;;;;;;4.25;1.90;;;;;;;2.36;100.00;98297.81;4987014;28;20394;-63
2021/12/10 03:29:09;;;;;;;6.85;2.42;;;;;;;2.28;100.00;98289.31;4988571;28;20121;-63
2021/12/10 03:31:36;;;;;;;3.08;2.10;;;;;;;2.27;100.00;98298.06;4981122;28;20766;-64
2021/12/10 03:34:03;;;;;;;2.42;1.92;;;;;;;2.25;100.00;98294.63;4989355;28;20026;-64
2021/12/10 03:36:28;;;;;;;4.90;1.77;;;;;;;2.27;100.00;98297.22;4990357;28;20037;-64
2021/12/10 03:38:55;;;;;;;2.17;1.80;;;;;;;2.25;100.00;98292.00;4989936;28;20030;-63
2021/12/10 03:41:21;;;;;;;3.00;2.05;;;;;;;2.19;100.00;98283.44;4984274;28;20026;-63
2021/12/10 03:43:49;;;;;;;3.15;2.10;;;;;;;2.17;100.00;98287.88;4991543;28;20113;-63
2021/12/10 03:46:16;;;;;;;2.42;1.73;;;;;;;2.15;100.00;98287.91;4991816;28;20030;-63
2021/12/10 03:48:45;;;;;;;6.07;2.00;;;;;;;2.10;100.00;98281.94;4985542;28;20025;-63
2021/12/10 03:51:18;;;;;;;3.75;2.00;;;;;;;2.09;100.00;98281.97;4991403;28;20030;-63
2021/12/10 03:53:45;;;;;;;2.80;1.60;;;;;;;2.06;100.00;98282.91;4987868;28;20050;-63
2021/12/10 03:56:15;;;;;;;5.90;2.42;;;;;;;2.02;100.00;98276.03;4984672;28;20473;-63
2021/12/10 03:58:42;;;;;;;3.65;1.90;;;;;;;2.00;100.00;98272.59;4990525;28;20061;-63
2021/12/10 04:01:11;;;;;;;2.22;1.70;;;;;;;1.98;100.00;98258.66;4981496;28;20031;-63
2021/12/10 04:03:37;;;;;;;4.88;2.08;;;;;;;2.02;100.00;98255.06;4970716;28;20035;-63
2021/12/10 04:06:04;;;;;;;4.45;2.50;;;;;;;1.98;100.00;98242.91;4972020;28;20411;-63
2021/12/10 04:08:30;;;;;;;2.75;1.90;;;;;;;1.88;100.00;98220.47;4972580;28;20027;-63
2021/12/10 04:10:58;;;;;;;5.45;2.85;;;;;;;1.94;100.00;98233.44;4982284;28;20077;-63
2021/12/10 04:13:23;;;;;;;3.95;1.88;;;;;;;1.91;100.00;98230.88;4990555;28;20041;-63
2021/12/10 04:15:49;;;;;;;3.40;2.00;;;;;;;1.87;100.00;98224.00;4987311;28;20374;-64
2021/12/10 04:18:15;;;;;;;3.15;2.28;;;;;;;1.78;100.00;98219.00;4974602;28;20034;-63
2021/12/10 04:20:42;;;;;;;13.68;3.03;;;;;;;1.85;100.00;98215.31;4971686;28;20033;-63
2021/12/10 04:23:11;;;;;;;6.57;3.83;;;;;;;1.89;100.00;98219.59;4972768;28;20698;-63
2021/12/10 04:25:37;;;;;;;5.70;2.47;;;;;;;1.87;100.00;98218.75;5001378;28;20029;-63
2021/12/10 04:28:07;;;;;;;6.85;2.40;;;;;;;1.85;100.00;98214.44;5010269;28;20033;-63
2021/12/10 04:30:39;;;;;;;5.60;2.95;;;;;;;1.80;100.00;98180.50;4999401;28;20398;-63
2021/12/10 04:33:06;;;;;;;3.60;2.38;;;;;;;1.89;100.00;98198.63;4975754;28;20037;-63
2021/12/10 04:35:31;;;;;;;2.30;2.10;;;;;;;1.89;100.00;98203.88;4973301;28;20030;-63
2021/12/10 04:37:57;;;;;;;2.97;2.13;;;;;;;1.86;100.00;98190.81;4982253;28;20077;-63
2021/12/10 04:40:23;;;;;;;2.65;2.00;;;;;;;1.76;100.00;98178.03;4989093;28;20036;-63
2021/12/10 04:42:50;;;;;;;6.63;2.15;;;;;;;1.74;100.00;98183.31;4978393;28;20031;-63
2021/12/10 04:45:18;;;;;;;4.43;2.67;;;;;;;1.74;100.00;98185.94;4971644;28;20050;-63
2021/12/10 04:47:45;;;;;;;8.65;3.08;;;;;;;1.79;100.00;98178.81;4971680;28;20041;-63
2021/12/10 04:50:12;;;;;;;4.80;2.47;;;;;;;1.73;100.00;98168.47;4974364;28;20057;-63
2021/12/10 04:52:38;;;;;;;4.65;3.10;;;;;;;1.82;100.00;98163.00;4976432;28;20034;-63
2021/12/10 04:55:07;;;;;;;8.02;2.67;;;;;;;1.81;100.00;98161.28;5006721;28;20021;-63
2021/12/10 04:57:33;;;;;;;7.20;2.53;;;;;;;1.78;100.00;98143.00;4988597;28;20054;-63
2021/12/10 04:59:58;;;;;;;5.65;2.72;;;;;;;1.81;100.00;98150.78;4990824;28;20027;-63
2021/12/10 05:02:24;;;;;;;4.22;2.65;;;;;;;1.77;100.00;98143.91;4982707;28;20446;-63
2021/12/10 05:04:56;;;;;;;5.07;2.25;;;;;;;1.68;100.00;98133.66;4980487;28;20023;-63
2021/12/10 05:07:21;;;;;;;6.90;2.90;;;;;;;1.68;100.00;98127.59;4981645;28;20106;-63
2021/12/10 05:09:47;;;;;;;3.97;2.60;;;;;;;1.66;100.00;98119.78;4977558;28;20121;-64
2021/12/10 05:12:12;;;;;;;4.90;2.55;;;;;;;1.65;100.00;98118.03;4971015;28;20102;-64
2021/12/10 05:14:38;;;;;;;7.70;2.88;;;;;;;1.70;100.00;98115.31;4971700;28;20050;-63
2021/12/10 05:17:07;;;;;;;5.47;2.80;;;;;;;1.74;100.00;98112.56;4974190;28;20029;-63
2021/12/10 05:19:34;;;;;;;9.73;2.83;;;;;;;1.75;100.00;98108.16;4984946;28;20030;-63
2021/12/10 05:22:01;;;;;;;7.85;2.75;;;;;;;1.72;100.00;98103.88;4990076;28;20064;-63
2021/12/10 05:24:29;;;;;;;4.82;2.67;;;;;;;1.75;100.00;98098.53;4987366;28;20026;-63
2021/12/10 05:26:56;;;;;;;12.35;3.70;;;;;;;1.76;100.00;98089.78;4993047;28;20029;-64
2021/12/10 05:29:22;;;;;;;8.20;3.00;;;;;;;1.76;100.00;98084.56;4992559;28;20359;-64
2021/12/10 05:31:49;;;;;;;3.63;2.28;;;;;;;1.73;100.00;98076.75;4986684;28;20035;-64
2021/12/10 05:34:15;;;;;;;4.63;2.00;;;;;;;1.75;100.00;98067.09;4974253;28;20027;-64
2021/12/10 05:36:41;;;;;;;3.88;2.25;;;;;;;1.75;100.00;98051.38;4974851;28;20076;-63
2021/12/10 05:39:08;;;;;;;3.70;2.33;;;;;;;1.81;100.00;98056.44;4986455;28;20038;-63
2021/12/10 05:41:33;;;;;;;4.63;2.00;;;;;;;1.82;100.00;98047.66;4993277;28;20023;-64
2021/12/10 05:43:59;;;;;;;2.33;1.85;;;;;;;1.81;100.00;98035.47;4994355;28;20088;-63
2021/12/10 05:46:25;;;;;;;5.97;2.22;;;;;;;1.87;100.00;98037.03;4990410;28;20018;-63
2021/12/10 05:48:51;;;;;;;2.15;1.90;;;;;;;1.90;100.00;98023.84;4987981;28;20030;-64
2021/12/10 05:51:17;;;;;;;3.85;2.10;;;;;;;1.94;100.00;98026.34;4993484;28;20104;-63
2021/12/10 05:53:43;;;;;;;4.43;2.30;;;;;;;1.98;100.00;98020.09;4994364;28;20082;-64
2021/12/10 05:56:10;;;;;;;5.57;2.50;;;;;;;2.03;100.00;98005.06;4990181;28;20026;-64
2021/12/10 05:58:36;;;;;;;5.88;3.47;;;;;;;2.05;100.00;97995.41;4981414;28;20030;-64
2021/12/10 06:01:06;;;;;;;5.82;2.88;;;;;;;2.05;100.00;97989.31;4976123;28;20038;-64
2021/12/10 06:03:33;;;;;;;3.30;2.25;;;;;;;2.03;100.00;97994.59;4978834;28;20030;-64
2021/12/10 06:06:00;;;;;;;4.53;2.28;;;;;;;2.03;100.00;97989.34;4973525;28;20177;-64
2021/12/10 06:08:27;;;;;;;4.85;2.75;;;;;;;2.06;100.00;97984.00;4974820;28;20391;-63
2021/12/10 06:10:56;;;;;;;5.25;2.40;;;;;;;2.12;100.00;97973.34;4976930;28;20034;-64
2021/12/10 06:13:22;;;;;;;4.47;2.80;;;;;;;2.09;100.00;97960.31;4993195;28;20030;-64
2021/12/10 06:15:47;;;;;;;10.07;3.05;;;;;;;2.18;100.00;97961.78;4988640;28;20435;-63
2021/12/10 06:18:13;;;;;;;7.82;2.95;;;;;;;2.13;100.00;97951.44;4986954;28;20029;-63
2021/12/10 06:20:43;;;;;;;7.15;2.88;;;;;;;2.15;100.00;97948.78;4991638;28;20022;-63
2021/12/10 06:23:10;;;;;;;5.47;3.83;;;;;;;2.13;100.00;97951.44;4986054;28;20440;-64
2021/12/10 06:25:36;;;;;;;6.00;2.88;;;;;;;2.13;100.00;97954.06;4992822;28;20494;-64
2021/12/10 06:28:03;;;;;;;8.20;3.63;;;;;;;2.18;100.00;97948.66;4986439;28;20109;-63
2021/12/10 06:30:31;;;;;;;8.10;3.63;;;;;;;2.16;100.00;97948.72;4973848;28;20113;-63
2021/12/10 06:32:58;;;;;;;10.15;3.67;;;;;;;2.04;100.00;97930.75;4976347;28;20171;-63
2021/12/10 06:35:25;;;;;;;6.57;3.88;;;;;;;2.08;100.00;97935.00;4992656;28;20089;-63
2021/12/10 06:37:53;;;;;;;9.20;4.18;;;;;;;2.10;100.00;97935.81;4992001;28;20105;-63
2021/12/10 06:40:22;;;;;;;5.95;3.50;;;;;;;2.08;100.00;97928.91;4981687;28;20072;-63
2021/12/10 06:42:49;;;;;;;5.55;3.53;;;;;;;2.07;100.00;97927.19;4990699;28;20044;-63
2021/12/10 06:45:17;;;;;;;9.02;3.55;;;;;;;2.08;100.00;97923.66;4992514;28;20718;-63
2021/12/10 06:47:47;;;;;;;6.80;2.90;;;;;;;2.12;100.00;97915.66;4997157;28;20053;-63
2021/12/10 06:50:18;;;;;;;5.80;3.22;;;;;;;2.29;100.00;97933.47;4988985;28;20026;-63
2021/12/10 06:52:44;;;;;;;6.30;3.75;;;;;;;2.21;100.00;97924.97;4987184;28;20037;-63
2021/12/10 06:55:10;;;;;;;11.07;3.50;;;;;;;2.02;100.00;97919.47;4991861;28;20080;-63
2021/12/10 06:57:37;;;;;;;7.80;3.10;;;;;;;2.00;100.00;97920.41;4993276;28;20026;-63
2021/12/10 07:00:11;;;;;;;5.70;3.55;;;;;;;1.98;100.00;97923.09;4983954;28;20098;-63
2021/12/10 07:02:36;;;;;;;;;;;;;;;1.94;100.00;97920.63;4981017;28;20031;-63
2021/12/10 07:05:04;;;;;;;9.15;3.28;;;;;;;1.97;100.00;97920.53;4974710;28;19940;-63
2021/12/10 07:07:31;;;;;;;8.63;3.85;;;;;;;2.13;100.00;97933.09;4987066;28;20041;-63
2021/12/10 07:09:57;;;;;;;11.15;3.72;;;;;;;2.10;100.00;97941.06;4992102;28;20755;-63
2021/12/10 07:12:23;;;;;;;9.75;3.97;;;;;;;2.13;100.00;97943.59;4986839;28;20100;-63
2021/12/10 07:14:48;;;;;;;8.13;4.03;;;;;;;2.17;100.00;97945.22;4980537;28;20513;-63
2021/12/10 07:17:14;;;;;;;9.82;3.42;;;;;;;2.15;100.00;97949.66;4992303;28;20096;-63
2021/12/10 07:19:40;;;;;;;6.38;3.83;;;;;;;2.17;100.00;97950.47;4982417;28;20816;-63
2021/12/10 07:22:06;;;;;;;6.35;3.67;;;;;;;2.22;100.00;97953.78;4991498;28;20026;-63
2021/12/10 07:24:31;;;;;;;5.13;3.45;;;;;;;2.26;100.00;97960.63;4991665;28;20033;-63
2021/12/10 07:26:57;;;;;;;6.82;3.10;;;;;;;2.35;100.00;97969.97;4988644;28;20053;-63
2021/12/10 07:29:23;;;;;;;7.68;3.55;;;;;;;2.36;100.00;97967.28;4986128;28;20084;-63
2021/12/10 07:31:48;;;;;;;11.13;4.50;;;;;;;2.37;100.00;97961.13;4990880;28;20632;-63
2021/12/10 07:34:14;;;;;;;14.15;4.32;;;;;;;2.44;100.00;97954.78;4981264;28;20073;-63
2021/12/10 07:36:40;;;;;;;9.18;3.20;;;;;;;2.49;100.00;97954.63;4989972;28;20046;-63
2021/12/10 07:39:08;;;;;;;7.95;3.45;;;;;;;2.54;100.00;97955.31;4985599;28;20039;-63
2021/12/10 07:41:33;;;;;;;7.45;3.70;;;;;;;2.42;100.00;97961.84;4986907;28;20026;-63
2021/12/10 07:44:02;;;;;;;4.97;2.85;;;;;;;2.50;100.00;97965.06;4991186;28;20034;-63
2021/12/10 07:46:28;;;;;;;6.25;3.47;;;;;;;2.45;100.00;97967.00;4979865;28;20092;-63
2021/12/10 07:48:55;;;;;;;8.02;3.38;;;;;;;2.53;100.00;97966.75;4971468;28;20479;-63
2021/12/10 07:51:26;;;;;;;10.60;3.67;;;;;;;2.56;100.00;97969.25;4977294;28;20026;-63
2021/12/10 07:53:55;;;;;;;14.13;5.28;;;;;;;2.60;100.00;97974.34;4991352;28;20041;-63
2021/12/10 07:56:21;;;;;;;8.10;4.95;;;;;;;2.69;100.00;97963.56;4991421;28;20029;-63
2021/12/10 07:58:47;;;;;;;10.07;4.03;;;;;;;2.76;100.00;97963.31;4984572;28;20034;-63
2021/12/10 08:01:20;;;;;;;7.30;4.40;;;;;;;2.84;100.00;97963.91;4971442;28;20081;-63
2021/12/10 08:03:47;;;;;;;12.82;5.22;;;;;;;2.85;100.00;97961.22;4982180;28;20033;-63
2021/12/10 08:06:14;;;;;;;8.95;5.20;;;;;;;2.91;100.00;97962.81;4974055;28;20077;-63
2021/12/10 08:08:40;;;;;;;9.80;5.43;;;;;;;2.89;100.00;97957.59;4972117;28;20093;-64
2021/12/10 08:11:06;;;;;;;11.15;4.40;;;;;;;3.00;100.00;97957.25;4991715;28;20041;-63
2021/12/10 08:13:32;;;;;;;12.10;5.13;;;;;;;3.18;100.00;97959.22;4993229;28;20059;-63
2021/12/10 08:15:58;;;;;;;9.95;5.35;;;;;;;3.22;100.00;97961.66;4991646;28;20030;-63
2021/12/10 08:18:24;;;;;;;8.70;6.28;;;;;;;3.33;100.00;97966.50;4985522;28;20085;-63
2021/12/10 08:20:49;;;;;;;10.52;6.38;;;;;;;3.38;100.00;97962.81;4986809;28;20031;-63
2021/12/10 08:23:15;;;;;;;12.10;5.80;;;;;;;3.46;100.00;97967.81;4989869;28;20037;-63
2021/12/10 08:25:41;;;;;;;16.15;7.25;;;;;;;3.53;100.00;97962.25;4986638;28;20122;-63
2021/12/10 08:28:06;;;;;;;15.52;7.05;;;;;;;3.60;100.00;97957.63;4970785;28;20506;-63
2021/12/10 08:30:40;;;;;;;10.63;4.88;;;;;;;3.68;100.00;97961.69;4974391;28;20045;-63
2021/12/10 08:33:13;;;;;;;7.88;4.05;;;;;;;3.77;100.00;97957.84;4975729;28;20034;-63
2021/12/10 08:35:41;;;;;;;9.05;5.43;;;;;;;3.81;100.00;97947.13;4973452;28;20023;-63
2021/12/10 08:38:06;;;;;;;10.55;5.13;;;;;;;3.77;100.00;97936.81;4977445;28;20026;-64
2021/12/10 08:40:39;;;;;;;9.85;5.28;;;;;;;3.75;100.00;97943.88;4984975;28;20034;-63
2021/12/10 08:43:05;;;;;;;11.10;6.22;;;;;;;3.71;100.00;97935.25;4990721;28;20026;-63
2021/12/10 08:45:32;;;;;;;14.48;5.68;;;;;;;3.68;100.00;97931.91;4991223;28;20030;-63
2021/12/10 08:47:58;;;;;;;11.52;4.07;;;;;;;3.72;100.00;97926.44;4987952;28;20030;-63
2021/12/10 08:50:26;;;;;;;9.70;4.45;;;;;;;3.68;100.00;97903.84;4978096;28;20041;-63
2021/12/10 08:52:56;;;;;;;10.13;5.35;;;;;;;3.70;100.00;97916.91;4981412;28;20037;-63
2021/12/10 08:55:23;;;;;;;10.70;5.55;;;;;;;3.75;100.00;97912.34;4983428;28;20047;-64
2021/12/10 08:57:48;;;;;;;12.77;6.30;;;;;;;3.76;100.00;97900.91;4970809;28;20509;-64
2021/12/10 09:00:15;;;;;;;7.07;4.40;;;;;;;3.86;100.00;97897.00;4977634;28;20117;-64
2021/12/10 09:02:40;;;;;;;7.78;4.35;;;;;;;3.82;100.00;97891.00;4986725;28;20029;-64
2021/12/10 09:05:09;;;;;;;7.18;4.68;;;;;;;3.83;100.00;97891.88;4973952;28;20391;-64
2021/12/10 09:07:35;;;;;;;16.00;6.03;;;;;;;3.79;100.00;97885.00;4977415;28;20031;-64
2021/12/10 09:10:01;;;;;;;12.95;6.10;;;;;;;3.80;100.00;97876.22;4978529;28;20086;-63
2021/12/10 09:12:28;;;;;;;10.15;5.43;;;;;;;3.74;100.00;97871.22;4975309;28;20022;-64
2021/12/10 09:14:56;;;;;;;18.05;6.15;;;;;;;3.72;100.00;97870.41;4983271;28;20077;-64
2021/12/10 09:17:26;;;;;;;10.30;4.85;;;;;;;3.68;100.00;97863.53;4994838;28;20044;-64
2021/12/10 09:19:54;;;;;;;8.23;4.70;;;;;;;3.70;100.00;97865.22;4984826;28;20475;-64
2021/12/10 09:22:21;;;;;;;8.95;4.90;;;;;;;3.69;100.00;97873.16;4993955;28;20026;-64
2021/12/10 09:24:47;;;;;;;13.52;4.97;;;;;;;3.69;100.00;97857.38;4990907;28;20033;-64
2021/12/10 09:27:14;;;;;;;10.70;4.93;;;;;;;3.71;100.00;97861.66;4987896;28;20030;-63
2021/12/10 09:29:43;;;;;;;8.05;4.57;;;;;;;3.72;100.00;97862.53;4993484;28;20022;-63
2021/12/10 09:32:13;;;;;;;8.60;4.93;;;;;;;3.78;100.00;97868.38;4983770;28;20022;-65
2021/12/10 09:34:38;;;;;;;11.60;3.97;;;;;;;3.85;100.00;97853.22;4993775;28;20563;-64
2021/12/10 09:37:05;;;;;;;9.18;4.93;;;;;;;3.77;100.00;97850.06;4991599;28;20030;-64
2021/12/10 09:39:32;;;;;;;12.95;5.97;;;;;;;3.84;100.00;97856.75;4994325;28;20129;-64
2021/12/10 09:41:58;;;;;;;5.75;3.25;;;;;;;3.82;100.00;97853.34;4993569;28;20080;-64
2021/12/10 09:44:25;;;;;;;5.90;3.63;;;;;;;3.69;100.00;97839.00;4991675;28;20879;-64
2021/12/10 09:46:51;;;;;;;15.43;7.15;;;;;;;3.79;100.00;97851.69;4988319;28;20498;-64
2021/12/10 09:49:18;;;;;;;11.43;6.07;;;;;;;3.83;100.00;97855.91;4992902;28;20137;-64
2021/12/10 09:51:49;;;;;;;9.38;5.65;;;;;;;3.79;100.00;97845.56;4985642;28;20105;-64
2021/12/10 09:54:19;;;;;;;7.85;4.55;;;;;;;3.79;100.00;97842.94;4996283;28;20029;-64
2021/12/10 09:56:58;;;;;;;7.72;4.72;;;;;;;3.84;100.00;97840.97;4991618;28;20383;-64
2021/12/10 09:59:24;;;;;;;10.18;5.68;;;;;;;3.87;100.00;97833.81;4990540;28;20027;-64
2021/12/10 10:01:52;;;;;;;9.63;5.40;;;;;;;3.77;100.00;97824.59;4990797;28;20041;-64
2021/12/10 10:04:19;;;;;;;7.50;4.10;;;;;;;3.76;100.00;97827.28;4982185;28;20026;-64
2021/12/10 10:06:52;;;;;;;9.50;5.30;;;;;;;3.80;100.00;97826.25;4979076;28;20506;-64
2021/12/10 10:09:20;;;;;;;10.35;5.25;;;;;;;3.91;100.00;97821.41;4989714;28;20022;-64
2021/12/10 10:11:48;;;;;;;7.50;4.70;;;;;;;3.95;100.00;97818.59;4990692;28;20508;-64
2021/12/10 10:14:13;;;;;;;13.35;5.70;;;;;;;3.93;100.00;97809.06;4992606;28;20042;-64
2021/12/10 10:16:43;;;;;;;7.55;5.22;;;;;;;3.93;100.00;97798.53;4993874;28;20023;-64
2021/12/10 10:19:09;;;;;;;7.57;4.70;;;;;;;3.86;100.00;97812.84;4993163;28;20586;-63
2021/12/10 10:21:43;;;;;;;10.93;6.05;;;;;;;3.96;100.00;97809.78;4993476;28;20022;-64
2021/12/10 10:24:11;;;;;;;10.40;5.15;;;;;;;3.93;100.00;97804.66;4983084;28;20053;-64
2021/12/10 10:26:44;;;;;;;7.80;4.05;;;;;;;4.01;100.00;97797.31;4993559;28;20030;-63
2021/12/10 10:29:14;;;;;;;6.97;4.45;;;;;;;4.07;100.00;97798.81;4988234;28;20030;-64
2021/12/10 10:31:46;;;;;;;7.28;4.00;;;;;;;4.07;100.00;97798.81;4992146;28;20034;-64
2021/12/10 10:34:12;;;;;;;8.35;4.18;;;;;;;4.19;100.00;97790.41;4990504;28;20026;-64
2021/12/10 10:36:38;;;;;;;9.52;4.95;;;;;;;4.27;100.00;97788.28;4992420;28;20030;-64
2021/12/10 10:39:09;;;;;;;8.63;4.70;;;;;;;4.28;100.00;97789.16;4999138;28;20048;-64
2021/12/10 10:41:36;;;;;;;8.10;4.57;;;;;;;4.31;100.00;97778.50;5013102;28;20025;-64
2021/12/10 10:44:04;;;;;;;9.45;4.70;;;;;;;4.33;100.00;97780.16;4986882;28;20069;-65
2021/12/10 10:46:29;;;;;;;6.90;4.50;;;;;;;4.45;100.00;97787.50;4973656;28;20035;-64
2021/12/10 10:48:55;;;;;;;9.43;4.85;;;;;;;4.60;100.00;97786.81;4988319;28;20045;-64
2021/12/10 10:51:39;;;;;;;8.40;4.90;;;;;;;4.53;100.00;97774.84;4986913;28;20548;-64
2021/12/10 10:54:09;;;;;;;8.82;4.55;;;;;;;4.57;100.00;97776.44;4991579;28;20117;-64
2021/12/10 10:56:37;;;;;;;10.00;4.93;;;;;;;4.61;100.00;97778.00;4986705;28;20064;-64
2021/12/10 10:59:17;;;;;;;7.43;4.57;;;;;;;4.66;100.00;97781.28;4980826;28;20022;-64
2021/12/10 11:01:56;;;;;;;8.52;5.25;;;;;;;4.75;100.00;97775.63;4993691;28;20542;-64
2021/12/10 11:04:28;;;;;;;8.65;5.65;;;;;;;4.64;100.00;97769.97;4991833;28;20046;-64
2021/12/10 11:07:03;;;;;;;8.43;5.05;;;;;;;4.70;100.00;97782.88;4990440;28;20448;-64
2021/12/10 11:09:30;;;;;;;6.75;4.93;;;;;;;4.75;100.00;97780.00;5002661;28;20054;-64
2021/12/10 11:12:06;;;;;;;11.70;5.80;;;;;;;4.59;100.00;97782.50;4999036;28;20026;-64
2021/12/10 11:14:43;;;;;;;6.18;4.05;;;;;;;4.65;100.00;97774.31;4979388;28;20134;-64
2021/12/10 11:17:15;;;;;;;7.78;5.20;;;;;;;4.68;100.00;97782.06;4988021;28;20092;-64
2021/12/10 11:19:51;;;;;;;8.70;4.60;;;;;;;4.56;100.00;97774.75;4978355;28;20452;-64
2021/12/10 11:22:18;;;;;;;16.95;7.82;;;;;;;4.55;100.00;97778.28;4976444;28;20030;-64
2021/12/10 11:24:55;;;;;;;15.25;8.15;;;;;;;4.66;100.00;97776.00;4988654;28;20030;-64
2021/12/10 11:27:45;;;;;;;12.20;6.45;;;;;;;4.77;100.00;97779.03;4991529;28;20521;-64
2021/12/10 11:30:24;;;;;;;9.73;5.30;;;;;;;4.74;100.00;97775.69;4980965;28;20038;-64
2021/12/10 11:33:03;;;;;;;6.88;4.43;;;;;;;4.77;100.00;97773.78;4985084;28;20033;-64
2021/12/10 11:35:34;;;;;;;11.55;5.05;;;;;;;4.81;100.00;97775.31;4987474;28;20493;-64
2021/12/10 11:38:14;;;;;;;10.10;5.13;;;;;;;4.91;100.00;97778.41;4987410;28;20057;-64
2021/12/10 11:40:53;;;;;;;13.30;4.65;;;;;;;5.01;100.00;97783.19;4983346;28;20030;-64
2021/12/10 11:43:44;;;;;;;6.18;3.80;;;;;;;4.94;100.00;97765.09;4974173;28;20436;-64
2021/12/10 11:48:45;;;;;;;8.00;4.60;;;;;;;4.91;100.00;97776.63;4988693;28;20038;-64
2021/12/10 11:51:20;;;;;;;14.43;6.60;;;;;;;4.80;100.00;97768.38;4991943;28;20524;-64
2021/12/10 11:54:16;;;;;;;8.82;5.07;;;;;;;4.62;100.00;97773.59;4989931;28;20034;-64